Time;durP1;ratioP1;P1;durP2;ratioP2;P2;SDS_P1;SDS_P2;PMS_P1;PMS_P2;Temp;Humidity;BMP_temperature;BMP_pressure;BME280_temperature;BME280_humidity;BME280_pressure;Samples;Min_cycle;Max_cycle;Signal;HPM_P1;HPM_P2
2021/08/29 00:00:23;;;;;;;7.25;5.43;;;15.80;81.10;;;;;;6250544;28;20498;-78
2021/08/29 00:03:26;;;;;;;6.15;5.35;;;15.80;81.10;;;;;;6248097;28;20497;-78
2021/08/29 00:06:28;;;;;;;6.75;5.43;;;15.80;81.10;;;;;;6250420;28;20435;-79
2021/08/29 00:09:31;;;;;;;6.72;5.30;;;15.70;80.80;;;;;;6250675;28;20445;-79
2021/08/29 00:12:33;;;;;;;6.25;5.63;;;15.70;81.30;;;;;;6250451;28;20411;-77
2021/08/29 00:15:35;;;;;;;6.43;5.75;;;15.70;81.60;;;;;;6254491;28;20870;-78
2021/08/29 00:18:39;;;;;;;6.13;5.53;;;15.70;81.50;;;;;;6254740;28;20433;-77
2021/08/29 00:21:41;;;;;;;7.20;4.95;;;15.70;81.30;;;;;;6254497;28;20442;-78
2021/08/29 00:24:44;;;;;;;9.20;5.10;;;15.70;81.40;;;;;;6254064;28;20468;-78
2021/08/29 00:27:46;;;;;;;7.03;6.25;;;15.90;81.60;;;;;;6253903;28;20431;-78
2021/08/29 00:30:48;;;;;;;9.98;5.82;;;15.70;81.50;;;;;;6254137;28;20441;-78
2021/08/29 00:33:49;;;;;;;8.00;6.60;;;15.80;81.40;;;;;;6255194;28;20584;-78
2021/08/29 00:36:51;;;;;;;6.53;5.82;;;15.90;81.60;;;;;;6253542;28;20417;-78
2021/08/29 00:39:55;;;;;;;7.07;6.30;;;15.80;82.00;;;;;;6254634;28;20477;-78
2021/08/29 00:42:56;;;;;;;6.37;5.37;;;15.70;82.00;;;;;;6254179;28;20876;-78
2021/08/29 00:45:58;;;;;;;8.07;6.03;;;15.70;82.10;;;;;;6253854;28;20498;-77
2021/08/29 00:49:00;;;;;;;9.57;6.40;;;15.60;82.30;;;;;;6252637;28;20445;-78
2021/08/29 00:52:03;;;;;;;8.82;7.00;;;15.60;83.10;;;;;;6252810;28;20900;-78
2021/08/29 00:55:09;;;;;;;9.60;7.83;;;15.60;83.30;;;;;;6251753;28;20920;-77
2021/08/29 00:58:11;;;;;;;8.57;7.43;;;15.60;83.50;;;;;;6253005;28;20431;-78
2021/08/29 01:01:16;;;;;;;8.50;7.00;;;15.70;83.80;;;;;;6252511;28;20513;-78
2021/08/29 01:04:24;;;;;;;8.85;7.45;;;15.60;83.50;;;;;;6252124;28;20457;-78
2021/08/29 01:07:33;;;;;;;10.52;7.28;;;15.60;83.50;;;;;;6240910;28;20417;-78
2021/08/29 01:10:43;;;;;;;8.38;7.30;;;15.60;83.60;;;;;;6222311;28;20571;-77
2021/08/29 01:13:46;;;;;;;10.43;7.43;;;15.60;84.40;;;;;;6229828;28;20527;-78
2021/08/29 01:16:52;;;;;;;9.82;7.68;;;15.60;84.10;;;;;;6236321;28;20467;-76
2021/08/29 01:20:10;;;;;;;10.02;7.57;;;15.60;83.90;;;;;;6249483;28;20447;-78
2021/08/29 01:23:13;;;;;;;10.75;7.82;;;15.60;84.00;;;;;;6232354;28;20456;-78
2021/08/29 01:26:22;;;;;;;10.02;7.65;;;15.50;83.40;;;;;;6227325;28;20523;-78
2021/08/29 01:29:27;;;;;;;11.38;7.60;;;15.80;83.70;;;;;;6228055;28;20484;-78
2021/08/29 01:32:30;;;;;;;9.77;7.32;;;15.40;84.20;;;;;;6227603;28;20785;-78
2021/08/29 01:35:31;;;;;;;9.27;7.32;;;15.40;84.50;;;;;;6227261;28;20934;-78
2021/08/29 01:38:33;;;;;;;10.40;8.20;;;15.30;84.60;;;;;;6228193;28;20512;-78
2021/08/29 01:41:38;;;;;;;8.82;7.85;;;15.30;84.80;;;;;;6227871;28;20419;-78
2021/08/29 01:44:44;;;;;;;14.20;8.25;;;15.30;85.60;;;;;;6227371;28;20425;-77
2021/08/29 01:47:46;;;;;;;8.50;7.40;;;15.50;85.20;;;;;;6227701;28;20597;-78
2021/08/29 01:50:49;;;;;;;10.07;7.63;;;15.70;84.70;;;;;;6227166;28;20845;-78
2021/08/29 01:53:51;;;;;;;9.80;7.97;;;15.40;85.00;;;;;;6228019;28;20504;-78
2021/08/29 01:57:04;;;;;;;8.65;7.70;;;15.40;85.00;;;;;;6226766;28;20412;-77
2021/08/29 02:00:10;;;;;;;8.90;7.70;;;15.40;84.90;;;;;;6228268;28;20444;-78
2021/08/29 02:03:12;;;;;;;9.07;8.18;;;15.50;84.80;;;;;;6227222;28;20479;-78
2021/08/29 02:06:19;;;;;;;11.18;8.48;;;15.50;84.90;;;;;;6225552;28;20433;-77
2021/08/29 02:09:21;;;;;;;12.35;7.97;;;15.50;84.90;;;;;;6225215;28;20409;-78
2021/08/29 02:12:24;;;;;;;11.77;8.60;;;15.50;84.60;;;;;;6226713;28;20472;-76
2021/08/29 02:15:30;;;;;;;10.73;8.27;;;15.80;84.80;;;;;;6226776;28;20502;-78
2021/08/29 02:18:34;;;;;;;9.30;8.10;;;15.70;85.00;;;;;;6229530;28;20595;-78
2021/08/29 02:21:37;;;;;;;9.70;8.20;;;15.60;84.70;;;;;;6228868;28;20968;-78
2021/08/29 02:24:39;;;;;;;11.30;8.73;;;15.60;84.80;;;;;;6228563;28;20476;-78
2021/08/29 02:27:42;;;;;;;9.68;8.07;;;15.60;84.70;;;;;;6228250;28;20495;-78
2021/08/29 02:30:46;;;;;;;10.18;8.35;;;15.80;84.70;;;;;;6227855;28;20523;-78
2021/08/29 02:33:48;;;;;;;11.23;8.73;;;15.60;84.90;;;;;;6228577;28;20581;-78
2021/08/29 02:36:51;;;;;;;11.07;9.20;;;15.60;85.50;;;;;;6227025;28;22079;-77
2021/08/29 02:39:55;;;;;;;11.98;9.35;;;15.60;85.30;;;;;;6226917;28;20906;-78
2021/08/29 02:42:57;;;;;;;14.30;10.82;;;15.50;85.40;;;;;;6224128;28;20924;-77
2021/08/29 02:46:01;;;;;;;15.35;12.00;;;15.50;85.30;;;;;;6226616;28;20433;-77
2021/08/29 02:49:05;;;;;;;19.65;13.18;;;15.50;85.90;;;;;;6226918;28;20934;-78
2021/08/29 02:52:07;;;;;;;22.33;14.07;;;15.50;86.40;;;;;;6226874;28;20429;-78
2021/08/29 02:55:10;;;;;;;24.80;15.55;;;15.40;86.30;;;;;;6226307;28;20563;-77
2021/08/29 02:58:13;;;;;;;28.83;17.08;;;15.40;86.60;;;;;;6227194;28;20511;-78
2021/08/29 03:01:16;;;;;;;27.88;16.92;;;15.40;86.80;;;;;;6227297;28;20559;-79
2021/08/29 03:04:18;;;;;;;33.30;19.42;;;15.40;86.90;;;;;;6226005;28;20495;-77
2021/08/29 03:07:21;;;;;;;31.15;18.38;;;15.40;87.10;;;;;;6226597;28;20548;-78
2021/08/29 03:10:23;;;;;;;34.70;19.73;;;15.40;87.20;;;;;;6226190;28;20511;-78
2021/08/29 03:13:28;;;;;;;31.17;18.50;;;15.40;87.10;;;;;;6226287;28;20441;-81
2021/08/29 03:16:31;;;;;;;37.30;19.92;;;15.50;87.10;;;;;;6224816;28;20537;-77
2021/08/29 03:19:34;;;;;;;38.70;19.77;;;15.50;87.20;;;;;;6224923;28;20428;-78
2021/08/29 03:22:37;;;;;;;38.85;20.83;;;15.50;87.30;;;;;;6225575;28;21050;-78
2021/08/29 03:25:39;;;;;;;40.53;21.08;;;15.50;87.30;;;;;;6226098;28;20897;-78
2021/08/29 03:28:41;;;;;;;38.20;20.48;;;15.60;87.40;;;;;;6224853;28;20507;-77
2021/08/29 03:31:45;;;;;;;33.75;18.27;;;15.60;87.20;;;;;;6225437;28;20488;-78
2021/08/29 03:34:48;;;;;;;35.93;19.27;;;15.60;86.90;;;;;;6224155;28;20471;-77
2021/08/29 03:37:50;;;;;;;41.20;20.98;;;15.60;87.20;;;;;;6224493;28;20934;-78
2021/08/29 03:40:54;;;;;;;38.08;20.27;;;15.60;87.20;;;;;;6224622;28;20420;-78
2021/08/29 03:43:56;;;;;;;36.05;20.10;;;15.70;87.30;;;;;;6224038;28;20447;-78
2021/08/29 03:47:00;;;;;;;38.63;20.10;;;15.70;87.30;;;;;;6224610;28;20492;-77
2021/08/29 03:50:03;;;;;;;38.40;19.88;;;15.70;87.20;;;;;;6228608;28;20436;-78
2021/08/29 03:53:05;;;;;;;36.55;20.15;;;15.70;87.40;;;;;;6229078;28;20506;-78
2021/08/29 03:56:08;;;;;;;36.63;20.60;;;15.70;87.50;;;;;;6228175;28;20427;-77
2021/08/29 03:59:10;;;;;;;38.08;19.95;;;15.80;87.50;;;;;;6229148;28;21056;-78
2021/08/29 04:02:14;;;;;;;29.33;18.27;;;15.80;87.40;;;;;;6228694;28;20432;-77
2021/08/29 04:05:16;;;;;;;26.83;17.50;;;15.80;87.60;;;;;;6228457;28;20574;-78
2021/08/29 04:08:20;;;;;;;26.07;16.60;;;15.90;87.30;;;;;;6229231;28;20829;-78
2021/08/29 04:11:24;;;;;;;23.92;14.65;;;16.10;87.40;;;;;;6229414;28;20423;-78
2021/08/29 04:14:26;;;;;;;22.77;14.97;;;15.90;87.30;;;;;;6229256;28;20540;-77
2021/08/29 04:17:32;;;;;;;23.53;14.30;;;15.90;87.00;;;;;;6228957;28;20447;-77
2021/08/29 04:20:34;;;;;;;22.10;15.00;;;16.20;87.10;;;;;;6229912;28;20420;-78
2021/08/29 04:23:36;;;;;;;22.80;14.63;;;16.00;87.00;;;;;;6230007;28;20428;-78
2021/08/29 04:26:39;;;;;;;19.70;13.13;;;16.00;87.00;;;;;;6229183;28;20511;-77
2021/08/29 04:29:41;;;;;;;23.70;15.10;;;16.00;86.90;;;;;;6230593;28;20590;-77
2021/08/29 04:32:48;;;;;;;24.13;15.00;;;16.00;87.00;;;;;;6229662;28;20842;-78
2021/08/29 04:35:50;;;;;;;23.58;13.93;;;16.00;86.80;;;;;;6228474;28;20440;-78
2021/08/29 04:38:52;;;;;;;23.63;13.70;;;16.00;86.90;;;;;;6229141;28;20919;-78
2021/08/29 04:41:53;;;;;;;23.95;13.75;;;16.00;87.10;;;;;;6229944;28;20616;-77
2021/08/29 04:44:55;;;;;;;20.90;14.47;;;16.00;87.00;;;;;;6228795;28;20436;-78
2021/08/29 04:47:58;;;;;;;20.15;13.65;;;16.00;87.10;;;;;;6228984;28;20452;-78
2021/08/29 04:51:00;;;;;;;24.55;14.65;;;16.20;87.00;;;;;;6239142;28;20918;-77
2021/08/29 04:54:02;;;;;;;22.75;13.65;;;16.00;87.00;;;;;;6249258;28;20449;-76
2021/08/29 04:57:04;;;;;;;21.07;13.37;;;16.00;87.00;;;;;;6232076;28;20423;-78
2021/08/29 05:00:08;;;;;;;21.98;12.98;;;16.10;86.80;;;;;;6228120;28;20528;-78
2021/08/29 05:03:11;;;;;;;18.75;13.40;;;16.00;86.80;;;;;;6229325;28;20412;-78
2021/08/29 05:06:13;;;;;;;22.30;13.50;;;16.00;86.60;;;;;;6228046;28;20566;-78
2021/08/29 05:09:15;;;;;;;17.08;12.05;;;16.10;86.80;;;;;;6227968;28;20417;-78
2021/08/29 05:12:17;;;;;;;17.35;12.35;;;16.10;86.80;;;;;;6227628;28;20500;-78
2021/08/29 05:15:19;;;;;;;17.17;12.68;;;16.10;86.70;;;;;;6227834;28;20506;-78
2021/08/29 05:18:23;;;;;;;17.25;11.63;;;16.10;86.70;;;;;;6228150;28;20518;-78
2021/08/29 05:21:24;;;;;;;18.50;12.50;;;16.10;86.50;;;;;;6227720;28;20432;-78
2021/08/29 05:24:26;;;;;;;20.77;12.80;;;16.10;86.50;;;;;;6227030;28;20421;-77
2021/08/29 05:27:28;;;;;;;21.05;13.50;;;16.10;86.60;;;;;;6227173;28;20460;-78
2021/08/29 05:30:30;;;;;;;19.88;13.07;;;16.20;86.50;;;;;;6227359;28;20520;-78
2021/08/29 05:33:33;;;;;;;20.08;12.98;;;16.20;86.50;;;;;;6226851;28;20535;-78
2021/08/29 05:36:35;;;;;;;15.70;11.40;;;16.20;86.50;;;;;;6226287;28;20472;-77
2021/08/29 05:39:36;;;;;;;19.55;12.90;;;16.20;86.60;;;;;;6227501;28;20861;-78
2021/08/29 05:42:38;;;;;;;17.65;12.90;;;16.20;86.60;;;;;;6227848;28;20519;-78
2021/08/29 05:45:40;;;;;;;17.50;12.70;;;16.20;86.60;;;;;;6227978;28;20515;-78
2021/08/29 05:48:45;;;;;;;17.83;11.48;;;16.30;86.50;;;;;;6227734;28;20478;-78
2021/08/29 05:51:47;;;;;;;20.10;12.52;;;16.20;86.40;;;;;;6227168;28;20444;-78
2021/08/29 05:54:49;;;;;;;16.98;12.57;;;16.30;86.40;;;;;;6240969;22;20484;-75
2021/08/29 05:57:50;;;;;;;24.73;13.23;;;16.30;86.40;;;;;;6246884;28;20564;-75
2021/08/29 06:00:53;;;;;;;16.60;12.65;;;16.30;86.40;;;;;;6246192;28;20427;-75
2021/08/29 06:03:57;;;;;;;21.08;12.75;;;16.40;86.20;;;;;;6238199;28;20431;-75
2021/08/29 06:06:58;;;;;;;17.93;12.47;;;16.40;86.30;;;;;;6207348;28;20541;-75
2021/08/29 06:10:00;;;;;;;17.70;11.65;;;16.50;86.20;;;;;;6216367;28;20490;-75
2021/08/29 06:13:02;;;;;;;14.10;11.10;;;16.90;86.60;;;;;;6217596;28;20423;-75
2021/08/29 06:16:05;;;;;;;15.82;11.57;;;16.60;86.40;;;;;;6196786;28;20459;-75
2021/08/29 06:19:08;;;;;;;12.32;9.27;;;16.60;86.10;;;;;;6197082;28;20528;-75
2021/08/29 06:22:09;;;;;;;11.57;9.27;;;16.70;86.10;;;;;;6205717;28;20527;-75
2021/08/29 06:25:11;;;;;;;11.95;9.05;;;16.80;86.10;;;;;;6220971;28;20412;-75
2021/08/29 06:28:13;;;;;;;11.07;9.00;;;16.80;86.10;;;;;;6220938;28;20475;-75
2021/08/29 06:31:15;;;;;;;8.95;7.03;;;16.90;86.00;;;;;;6221368;28;20417;-75
2021/08/29 06:34:18;;;;;;;8.18;7.03;;;17.10;85.60;;;;;;6221050;28;20925;-75
2021/08/29 06:37:20;;;;;;;8.32;6.65;;;17.30;85.50;;;;;;6220737;28;20462;-75
2021/08/29 06:40:22;;;;;;;6.80;6.10;;;17.20;85.80;;;;;;6200492;28;20915;-75
2021/08/29 06:43:24;;;;;;;7.32;6.63;;;17.20;84.90;;;;;;6196788;28;20418;-75
2021/08/29 06:46:25;;;;;;;6.50;4.93;;;17.50;85.90;;;;;;6197367;28;20524;-75
2021/08/29 06:49:29;;;;;;;5.05;4.65;;;17.90;85.10;;;;;;6196152;28;20541;-75
2021/08/29 06:52:30;;;;;;;4.38;3.97;;;17.50;84.10;;;;;;6196508;28;20554;-75
2021/08/29 06:55:32;;;;;;;5.57;4.70;;;17.70;83.40;;;;;;6195711;28;20927;-75
2021/08/29 06:58:34;;;;;;;6.13;4.32;;;17.40;83.30;;;;;;6197005;28;20470;-75
2021/08/29 07:01:36;;;;;;;5.03;4.63;;;17.50;83.60;;;;;;6196437;28;20803;-75
2021/08/29 07:04:39;;;;;;;4.38;3.80;;;17.50;83.60;;;;;;6195697;28;20426;-75
2021/08/29 07:07:41;;;;;;;4.63;4.20;;;17.30;83.60;;;;;;6208099;28;20593;-75
2021/08/29 07:10:43;;;;;;;4.95;4.35;;;17.20;84.00;;;;;;6213406;28;20494;-75
2021/08/29 07:13:45;;;;;;;5.25;4.75;;;17.30;84.20;;;;;;6209353;28;20518;-75
2021/08/29 07:16:46;;;;;;;9.38;8.55;;;17.20;84.20;;;;;;6195736;28;20414;-75
2021/08/29 07:19:50;;;;;;;4.57;3.53;;;17.40;86.30;;;;;;6195814;28;20500;-75
2021/08/29 07:22:51;;;;;;;4.47;3.17;;;17.50;87.60;;;;;;6195757;28;20482;-75
2021/08/29 07:25:53;;;;;;;3.22;2.78;;;17.80;86.30;;;;;;6195927;28;20920;-75
2021/08/29 07:28:55;;;;;;;4.03;3.30;;;18.10;84.10;;;;;;6195687;28;20462;-75
2021/08/29 07:31:57;;;;;;;3.28;2.97;;;18.10;82.50;;;;;;6196100;28;20457;-75
2021/08/29 07:35:00;;;;;;;3.70;3.40;;;18.20;82.40;;;;;;6195385;28;20606;-75
2021/08/29 07:38:04;;;;;;;3.00;2.70;;;18.20;82.60;;;;;;6208342;28;20943;-75
2021/08/29 07:41:06;;;;;;;3.30;3.00;;;18.30;81.20;;;;;;6216442;28;20548;-75
2021/08/29 07:44:07;;;;;;;3.63;2.70;;;18.20;79.50;;;;;;6220231;28;20432;-75
2021/08/29 07:47:09;;;;;;;5.10;3.80;;;18.10;80.50;;;;;;6219529;28;21088;-75
2021/08/29 07:50:13;;;;;;;5.43;3.25;;;18.10;81.10;;;;;;6220694;28;20440;-75
2021/08/29 07:53:14;;;;;;;22.17;3.73;;;18.00;81.20;;;;;;6219894;28;20542;-75
2021/08/29 07:56:16;;;;;;;5.45;4.22;;;18.10;81.20;;;;;;6219701;28;20424;-75
2021/08/29 07:59:18;;;;;;;3.67;3.28;;;18.10;81.90;;;;;;6220064;28;20506;-76
2021/08/29 08:02:20;;;;;;;5.10;3.13;;;18.10;81.20;;;;;;6220106;28;20531;-75
2021/08/29 08:05:23;;;;;;;6.05;3.30;;;18.00;81.30;;;;;;6219526;28;21076;-75
2021/08/29 08:08:25;;;;;;;3.90;3.38;;;18.20;82.10;;;;;;6212549;28;20504;-75
2021/08/29 08:11:27;;;;;;;3.72;3.33;;;18.00;82.00;;;;;;6219104;28;20424;-75
2021/08/29 08:14:28;;;;;;;5.15;3.80;;;18.00;81.90;;;;;;6202288;28;20882;-75
2021/08/29 08:17:30;;;;;;;3.20;2.70;;;18.30;82.10;;;;;;6195462;28;20513;-75
2021/08/29 08:20:33;;;;;;;3.97;3.03;;;18.10;81.50;;;;;;6195241;28;20509;-76
2021/08/29 08:23:35;;;;;;;2.63;2.42;;;18.10;81.70;;;;;;6195510;28;20426;-75
2021/08/29 08:26:37;;;;;;;2.70;2.50;;;18.20;81.10;;;;;;6194984;28;20854;-75
2021/08/29 08:29:39;;;;;;;2.55;2.25;;;18.20;81.10;;;;;;6195548;28;20474;-75
2021/08/29 08:32:41;;;;;;;2.78;2.58;;;18.50;80.60;;;;;;6195360;28;20454;-75
2021/08/29 08:35:44;;;;;;;3.20;2.88;;;18.30;80.70;;;;;;6197488;28;20505;-75
2021/08/29 08:38:46;;;;;;;4.40;2.60;;;18.40;81.50;;;;;;6213426;28;20466;-76
2021/08/29 08:41:49;;;;;;;2.70;2.50;;;18.50;80.60;;;;;;6224310;28;20531;-75
2021/08/29 08:44:50;;;;;;;3.28;1.95;;;18.60;79.90;;;;;;6223952;28;20421;-75
2021/08/29 08:47:52;;;;;;;2.60;2.40;;;18.50;79.90;;;;;;6224272;28;20555;-75
2021/08/29 08:50:57;;;;;;;2.20;1.98;;;18.50;79.90;;;;;;6223816;28;20436;-75
2021/08/29 08:54:02;;;;;;;1.90;1.73;;;18.60;79.70;;;;;;6224010;28;20519;-76
2021/08/29 08:57:05;;;;;;;3.85;2.38;;;18.60;79.60;;;;;;6220868;28;20420;-75
2021/08/29 09:00:09;;;;;;;2.70;1.83;;;18.50;80.20;;;;;;6209729;28;20561;-75
2021/08/29 09:03:11;;;;;;;1.92;1.77;;;18.50;79.40;;;;;;6197827;28;20983;-75
2021/08/29 09:06:15;;;;;;;3.28;2.15;;;18.50;78.90;;;;;;6199076;28;20476;-75
2021/08/29 09:09:16;;;;;;;3.83;2.35;;;18.50;79.00;;;;;;6213801;28;20416;-75
2021/08/29 09:12:18;;;;;;;2.13;1.92;;;18.40;79.40;;;;;;6222648;28;20516;-75
2021/08/29 09:15:20;;;;;;;4.50;2.30;;;18.40;79.00;;;;;;6221491;28;20935;-76
2021/08/29 09:18:22;;;;;;;33.90;30.45;;;18.50;79.10;;;;;;6222277;28;20945;-75
2021/08/29 09:21:27;;;;;;;18.03;15.23;;;18.80;79.10;;;;;;6221701;28;20502;-75
2021/08/29 09:24:31;;;;;;;10.70;9.63;;;18.50;78.50;;;;;;6221527;28;20504;-75
2021/08/29 09:27:32;;;;;;;3.00;2.70;;;18.60;79.40;;;;;;6221477;28;20790;-75
2021/08/29 09:30:34;;;;;;;4.50;4.15;;;18.60;78.10;;;;;;6221864;28;20519;-75
2021/08/29 09:33:36;;;;;;;9.27;8.47;;;18.60;79.50;;;;;;6221859;28;20580;-74
2021/08/29 09:36:39;;;;;;;3.55;3.22;;;18.70;79.60;;;;;;6221163;28;20456;-75
2021/08/29 09:39:41;;;;;;;3.40;2.20;;;18.80;79.00;;;;;;6213284;28;20893;-75
2021/08/29 09:42:44;;;;;;;2.80;2.60;;;18.80;78.40;;;;;;6221652;28;20444;-75
2021/08/29 09:45:46;;;;;;;4.10;2.37;;;18.80;78.00;;;;;;6220673;28;21087;-75
2021/08/29 09:48:50;;;;;;;2.67;2.47;;;18.90;77.10;;;;;;6221509;28;20424;-75
2021/08/29 09:51:54;;;;;;;3.40;2.60;;;18.80;78.00;;;;;;6221098;28;20496;-75
2021/08/29 09:54:55;;;;;;;4.25;2.33;;;18.70;77.70;;;;;;6209212;28;20424;-75
2021/08/29 09:57:58;;;;;;;3.85;3.00;;;18.60;78.50;;;;;;6207458;28;20517;-75
2021/08/29 10:01:11;;;;;;;4.15;3.65;;;18.40;80.30;;;;;;6212399;28;20932;-75
2021/08/29 10:04:18;;;;;;;5.43;3.97;;;18.40;81.10;;;;;;6209102;28;20436;-75
2021/08/29 10:07:23;;;;;;;4.90;3.33;;;18.40;80.60;;;;;;6208504;28;20485;-75
2021/08/29 10:10:28;;;;;;;5.07;3.70;;;18.40;80.90;;;;;;6208611;28;20846;-75
2021/08/29 10:13:30;;;;;;;3.58;2.63;;;18.70;80.70;;;;;;6206640;28;21078;-75
2021/08/29 10:16:33;;;;;;;3.90;3.47;;;18.40;81.00;;;;;;6207069;28;20523;-75
2021/08/29 10:19:37;;;;;;;3.22;2.92;;;18.60;81.20;;;;;;6208817;28;20414;-75
2021/08/29 10:22:41;;;;;;;3.85;3.38;;;18.70;80.70;;;;;;6206825;28;20491;-75
2021/08/29 10:25:44;;;;;;;5.93;5.30;;;18.80;79.70;;;;;;6206557;28;20438;-75
2021/08/29 10:28:51;;;;;;;9.37;8.60;;;18.60;79.30;;;;;;6205767;28;20923;-74
2021/08/29 10:31:57;;;;;;;10.07;9.18;;;18.50;80.00;;;;;;6195950;28;20431;-75
2021/08/29 10:35:00;;;;;;;6.68;6.00;;;18.30;81.30;;;;;;6195388;28;20557;-75
2021/08/29 10:38:03;;;;;;;7.57;6.88;;;18.10;82.10;;;;;;6208585;28;20453;-75
2021/08/29 10:41:05;;;;;;;6.77;6.23;;;18.00;82.70;;;;;;6216022;28;20832;-75
2021/08/29 10:44:07;;;;;;;6.22;5.00;;;18.10;83.30;;;;;;6219854;28;20448;-75
2021/08/29 10:47:09;;;;;;;4.70;4.30;;;18.20;83.10;;;;;;6219650;28;20499;-75
2021/08/29 10:50:17;;;;;;;4.80;4.38;;;18.20;82.80;;;;;;6220557;28;20599;-75
2021/08/29 10:53:31;;;;;;;4.43;3.85;;;18.30;81.60;;;;;;6219882;28;20532;-75
2021/08/29 10:56:34;;;;;;;4.28;3.47;;;18.20;82.50;;;;;;6219174;28;20424;-76
2021/08/29 10:59:36;;;;;;;5.07;4.18;;;18.20;82.10;;;;;;6218464;28;20424;-76
2021/08/29 11:02:40;;;;;;;5.03;4.55;;;18.20;81.50;;;;;;6210005;28;20502;-75
2021/08/29 11:05:54;;;;;;;6.28;4.25;;;18.30;81.70;;;;;;6219769;28;20539;-76
2021/08/29 11:09:36;;;;;;;5.50;5.00;;;18.30;82.50;;;;;;6211375;28;20488;-76
2021/08/29 11:12:39;;;;;;;5.53;4.88;;;18.30;82.00;;;;;;6216723;28;20413;-76
2021/08/29 11:15:41;;;;;;;4.95;4.00;;;18.20;82.10;;;;;;6194943;28;20422;-76
2021/08/29 11:19:17;;;;;;;6.15;5.00;;;18.20;81.70;;;;;;6195696;28;20438;-76
2021/08/29 11:22:24;;;;;;;4.65;4.13;;;18.20;82.40;;;;;;6195476;28;20442;-76
2021/08/29 11:25:28;;;;;;;5.40;4.90;;;18.20;81.80;;;;;;6194577;28;20422;-76
2021/08/29 11:28:31;;;;;;;7.30;4.53;;;18.50;82.00;;;;;;6194771;28;20422;-76
2021/08/29 11:31:52;;;;;;;5.38;4.88;;;18.30;82.40;;;;;;6195200;28;20415;-76
2021/08/29 11:35:05;;;;;;;5.83;4.20;;;18.40;81.40;;;;;;6194450;28;20604;-76
2021/08/29 11:38:12;;;;;;;5.22;4.70;;;18.50;81.00;;;;;;6207770;28;20912;-76
2021/08/29 11:41:17;;;;;;;4.93;4.43;;;18.50;79.90;;;;;;6216636;28;21004;-76
2021/08/29 11:44:20;;;;;;;5.10;4.67;;;18.40;80.30;;;;;;6219138;28;20448;-76
2021/08/29 11:47:23;;;;;;;6.60;5.18;;;18.40;80.70;;;;;;6218988;28;20424;-76
2021/08/29 11:50:31;;;;;;;12.15;6.43;;;18.50;80.80;;;;;;6219550;28;20440;-75
2021/08/29 11:53:47;;;;;;;7.93;5.85;;;18.60;81.10;;;;;;6219122;28;20922;-75
2021/08/29 11:56:50;;;;;;;6.45;5.40;;;18.60;79.80;;;;;;6218480;28;20448;-76
2021/08/29 12:00:05;;;;;;;9.07;6.82;;;18.50;79.70;;;;;;6219196;28;20420;-76
2021/08/29 12:03:07;;;;;;;8.32;6.65;;;18.50;81.10;;;;;;6214423;28;20563;-79
2021/08/29 12:06:22;;;;;;;9.65;6.78;;;18.50;80.00;;;;;;6219120;28;20531;-75
2021/08/29 12:09:27;;;;;;;8.07;6.63;;;18.40;79.40;;;;;;6218444;28;20553;-76
2021/08/29 12:12:31;;;;;;;7.38;6.25;;;18.50;79.40;;;;;;6238625;28;20415;-76
2021/08/29 12:15:33;;;;;;;8.05;5.95;;;18.50;79.20;;;;;;6223482;28;20430;-76
2021/08/29 12:18:37;;;;;;;6.90;6.20;;;18.50;79.40;;;;;;6223324;28;20519;-76
2021/08/29 12:21:41;;;;;;;7.13;6.28;;;18.50;80.30;;;;;;6224595;28;20440;-77
2021/08/29 12:24:44;;;;;;;6.93;6.22;;;18.50;79.50;;;;;;6223045;28;20416;-76
2021/08/29 12:27:48;;;;;;;7.70;6.75;;;18.50;79.60;;;;;;6223579;28;20417;-75
2021/08/29 12:30:54;;;;;;;8.32;7.28;;;18.60;80.00;;;;;;6223101;28;20439;-76
2021/08/29 12:33:56;;;;;;;7.03;6.37;;;18.70;79.30;;;;;;6224252;28;20456;-76
2021/08/29 12:37:02;;;;;;;7.07;6.38;;;18.70;79.10;;;;;;6222610;28;20456;-76
2021/08/29 12:40:07;;;;;;;8.18;6.03;;;18.70;78.80;;;;;;6215221;28;20409;-75
2021/08/29 12:43:10;;;;;;;6.68;5.97;;;18.70;78.30;;;;;;6222889;28;20424;-76
2021/08/29 12:46:12;;;;;;;7.05;6.35;;;18.70;78.10;;;;;;6224064;28;20472;-77
2021/08/29 12:49:14;;;;;;;9.30;6.40;;;18.70;78.50;;;;;;6223026;28;20489;-76
2021/08/29 12:52:19;;;;;;;6.90;5.97;;;18.80;78.70;;;;;;6222740;28;20413;-76
2021/08/29 12:55:23;;;;;;;5.85;5.25;;;18.80;79.60;;;;;;6222635;28;20427;-76
2021/08/29 12:58:29;;;;;;;6.50;5.90;;;18.80;78.10;;;;;;6223071;28;20947;-75
2021/08/29 13:01:30;;;;;;;9.30;6.40;;;18.70;78.60;;;;;;6222258;28;20443;-75
2021/08/29 13:04:32;;;;;;;7.60;6.32;;;18.70;78.50;;;;;;6217693;28;20482;-76
2021/08/29 13:07:47;;;;;;;6.88;5.90;;;18.70;78.90;;;;;;6222479;28;20500;-76
2021/08/29 13:11:03;;;;;;;8.50;6.38;;;18.60;79.00;;;;;;6222191;28;20925;-76
2021/08/29 13:14:06;;;;;;;6.65;5.97;;;18.60;79.10;;;;;;6208356;28;20982;-75
2021/08/29 13:17:14;;;;;;;6.53;5.73;;;18.60;78.70;;;;;;6197406;28;20450;-75
2021/08/29 13:20:16;;;;;;;6.82;6.13;;;18.50;78.20;;;;;;6197774;28;20485;-75
2021/08/29 13:23:26;;;;;;;8.63;6.60;;;18.50;78.50;;;;;;6197112;28;20504;-75
2021/08/29 13:26:34;;;;;;;7.23;6.50;;;18.50;78.80;;;;;;6197688;28;20477;-76
2021/08/29 13:29:39;;;;;;;6.75;5.80;;;18.50;79.20;;;;;;6197745;28;20474;-75
2021/08/29 13:32:42;;;;;;;7.50;6.70;;;18.40;78.20;;;;;;6197288;28;21048;-75
2021/08/29 13:35:44;;;;;;;7.88;6.30;;;18.40;77.80;;;;;;6196724;28;20566;-75
2021/08/29 13:38:47;;;;;;;6.75;6.15;;;18.40;78.00;;;;;;6211457;28;20481;-75
2021/08/29 13:42:06;;;;;;;7.13;6.43;;;18.40;77.60;;;;;;6222017;28;20530;-76
2021/08/29 13:45:13;;;;;;;7.45;6.45;;;18.30;78.10;;;;;;6221138;28;20440;-75
2021/08/29 13:48:15;;;;;;;7.95;7.13;;;18.30;78.00;;;;;;6221332;28;20416;-76
2021/08/29 13:51:17;;;;;;;7.13;6.43;;;18.40;78.80;;;;;;6221168;28;20409;-76
2021/08/29 13:54:18;;;;;;;7.68;6.88;;;18.40;78.10;;;;;;6221327;28;20437;-76
2021/08/29 13:57:20;;;;;;;6.82;6.03;;;18.40;77.40;;;;;;6220963;28;20452;-76
2021/08/29 14:00:24;;;;;;;7.18;6.30;;;18.40;77.30;;;;;;6221043;28;20437;-76
2021/08/29 14:03:27;;;;;;;8.48;7.07;;;18.40;77.30;;;;;;6217830;28;20471;-77
2021/08/29 14:06:28;;;;;;;10.00;7.75;;;18.40;77.40;;;;;;6214873;28;20494;-76
2021/08/29 14:09:30;;;;;;;6.93;5.63;;;18.50;77.20;;;;;;6212455;28;20547;-76
2021/08/29 14:12:32;;;;;;;12.82;6.22;;;18.60;77.00;;;;;;6218855;28;20491;-76
2021/08/29 14:15:36;;;;;;;6.20;5.60;;;18.70;76.90;;;;;;6196223;28;20467;-76
2021/08/29 14:18:37;;;;;;;8.52;7.15;;;18.70;75.50;;;;;;6196211;28;20438;-76
2021/08/29 14:21:39;;;;;;;9.00;6.75;;;18.70;76.30;;;;;;6196793;28;20470;-76
2021/08/29 14:24:41;;;;;;;20.85;11.40;;;18.60;75.90;;;;;;6195608;28;20505;-75
2021/08/29 14:27:49;;;;;;;7.15;5.82;;;18.70;76.20;;;;;;6195852;28;20946;-76
2021/08/29 14:30:52;;;;;;;10.03;6.93;;;18.70;77.00;;;;;;6196109;28;20434;-76
2021/08/29 14:33:54;;;;;;;21.30;17.38;;;18.70;77.70;;;;;;6196002;28;20514;-75
2021/08/29 14:36:58;;;;;;;10.87;6.63;;;18.80;76.30;;;;;;6211284;28;20571;-76
2021/08/29 14:39:59;;;;;;;7.80;6.07;;;19.30;77.20;;;;;;6211762;28;20417;-75
2021/08/29 14:43:01;;;;;;;9.10;6.65;;;18.90;77.30;;;;;;6220370;28;20523;-75
2021/08/29 14:46:04;;;;;;;7.78;6.45;;;19.00;77.60;;;;;;6219995;28;20483;-75
2021/08/29 14:49:06;;;;;;;7.75;6.00;;;19.00;77.20;;;;;;6219853;28;20984;-76
2021/08/29 14:52:08;;;;;;;8.68;6.47;;;18.80;78.30;;;;;;6219919;28;20491;-75
2021/08/29 14:55:10;;;;;;;7.00;6.03;;;18.80;78.60;;;;;;6219758;28;20425;-76
2021/08/29 14:58:12;;;;;;;7.88;6.28;;;18.80;78.60;;;;;;6220372;28;20925;-75
2021/08/29 15:01:15;;;;;;;8.13;6.20;;;18.70;78.90;;;;;;6219955;28;20877;-75
2021/08/29 15:04:17;;;;;;;8.02;7.13;;;18.70;79.20;;;;;;6216190;28;20431;-75
2021/08/29 15:07:19;;;;;;;8.02;6.85;;;18.70;79.10;;;;;;6218415;28;20482;-75
2021/08/29 15:10:21;;;;;;;6.53;5.82;;;18.60;79.40;;;;;;6212151;28;20503;-75
2021/08/29 15:13:23;;;;;;;9.05;6.95;;;18.60;79.60;;;;;;6210836;28;20414;-75
2021/08/29 15:16:26;;;;;;;9.10;6.25;;;18.60;79.60;;;;;;6194947;28;20485;-75
2021/08/29 15:19:28;;;;;;;10.50;7.07;;;18.60;79.10;;;;;;6195071;28;20572;-75
2021/08/29 15:22:30;;;;;;;7.45;6.72;;;18.60;79.80;;;;;;6195830;28;20477;-75
2021/08/29 15:25:32;;;;;;;9.15;7.63;;;18.60;80.10;;;;;;6194647;28;20513;-75
2021/08/29 15:28:34;;;;;;;9.57;6.97;;;18.50;79.90;;;;;;6194940;28;20446;-75
2021/08/29 15:31:38;;;;;;;11.13;6.75;;;18.40;80.30;;;;;;6194946;28;20454;-75
2021/08/29 15:34:40;;;;;;;7.85;7.15;;;18.40;80.30;;;;;;6194741;28;20438;-76
2021/08/29 15:37:42;;;;;;;9.63;6.57;;;18.40;81.00;;;;;;6207913;28;20525;-75
2021/08/29 15:40:44;;;;;;;10.13;6.80;;;18.40;81.00;;;;;;6212177;28;20450;-75
2021/08/29 15:43:49;;;;;;;9.73;7.60;;;18.40;80.50;;;;;;6219071;28;20429;-76
2021/08/29 15:46:53;;;;;;;9.98;6.70;;;18.40;81.20;;;;;;6224223;28;20439;-75